Time Latitude Longitude Accuracy (66% radius in meters) Altitude (meters) Speed (km/hour) Bearing (degrees) Battery (%) GPS flag
13:14:19 56.989818 39.416537 1.5 167.89999389648 0.93999999761581 256.17370605469 2 1 delete
13:14:09 56.989851 39.416702 1.5 167.19999694824 0.9099999666214 264.07287597656 2 1 delete
13:13:53 56.989839 39.416874 10.5 171.60000610352 0.68999999761581 300.39367675781 2 1 delete
13:03:52 56.990517 39.426067 1.5 174.80000305176 0.61000001430511 264.814453125 2 1 delete
13:03:47 56.990524 39.426169 1.5 174.60000610352 0.74000000953674 265.14404296875 2 1 delete
13:03:37 56.990547 39.426290 2 172.39999389648 1.0099999904633 267.33581542969 2 1 delete
13:03:21 56.990556 39.426492 10.5 165.60000610352 1.2799999713898 273.251953125 2 1 delete
12:53:17 56.993430 39.430920 1.5 186.39999389648 0.89999997615814 201.63208007812 4 1 delete
12:53:12 56.993463 39.430952 2 184.60000610352 0.71999996900558 210.15747070312 4 1 delete
12:53:02 56.993524 39.431032 1.5 182.39999389648 1.1000000238419 213.72253417969 4 1 delete
12:52:46 56.993600 39.431158 11 179 1.1000000238419 253.81164550781 4 1 delete
12:42:43 56.991757 39.439680 1 173.10000610352 1.2699999809265 289.14916992188 5 1 delete
12:42:33 56.991742 39.439848 1 174 1.2400000095367 275.5810546875 5 1 delete
12:42:23 56.991734 39.440084 1 174.5 1.2400000095367 274.22973632812 5 1 delete
12:42:18 56.991723 39.440168 1 174.10000610352 1 277.58056640625 5 1 delete
12:42:13 56.991718 39.440247 1 173.60000610352 1.1899999380112 287.20458984375 5 1 delete
12:41:58 56.991688 39.440418 1 173.69999694824 0 280.64025878906 5 1 delete
12:41:43 56.991676 39.440587 1 173.19999694824 0.75 283.60656738281 5 1 delete
12:41:33 56.991647 39.440768 1.5 172.89999389648 1.0799999237061 282.24975585938 5 1 delete
12:41:23 56.991622 39.440947 1.5 173 1.0199999809265 278.14636230469 5 1 delete
12:41:13 56.991598 39.441130 1.5 173.30000305176 1.0199999809265 282.92541503906 5 1 delete
12:41:08 56.991590 39.441214 1.5 173.39999389648 1.0299999713898 282.47497558594 5 1 delete
12:41:03 56.991582 39.441312 2 174 1.1200000047684 277.55310058594 5 1 delete
12:40:42 56.991617 39.441531 13.5 177.39999389648 1.6699999570847 269.14855957031 5 1 delete
12:30:36 56.990068 39.452724 2 186.60000610352 1.1100000143051 323.20129394531 5 1 delete
12:30:26 56.989972 39.452758 2.5 186 1.0799999237061 338.29650878906 5 1 delete
12:30:10 56.989903 39.452917 12.5 189 0 0 5 1 delete
12:20:09 56.984400 39.454298 2 178 1.0699999332428 349.98046875 7 1 delete
12:19:59 56.984296 39.454320 2 179.69999694824 1.0499999523163 345.20690917969 7 1 delete
12:19:49 56.984180 39.454313 2.5 180.60000610352 1.0900000333786 359.85717773438 7 1 delete
12:19:33 56.984055 39.454225 11.5 178.10000610352 0.11999999731779 110.79162597656 7 1 delete
12:09:29 56.979052 39.450398 1.5 187.19999694824 1.2200000286102 309.91882324219 7 1 delete
12:09:24 56.979020 39.450473 2 186.89999389648 1.0799999237061 301.74499511719 7 1 delete
12:09:14 56.978957 39.450627 2.5 186.30000305176 1.2099999189377 313.06640625 7 1 delete
12:09:03 56.978876 39.450732 14.5 175.89999389648 1.5299999713898 304.62890625 7 1 delete
11:58:48 56.976102 39.454756 4.5 177.60000610352 0 0 7 1 delete
11:58:22 56.976031 39.454763 16 167.60000610352 0.21999999880791 206.94396972656 7 1 delete
11:48:13 56.976127 39.454898 2 181 0 0 7 1 delete
11:47:53 56.976155 39.454919 3.5 182.39999389648 0.72999995946884 214.90356445312 7 1 delete
11:47:47 56.976072 39.455113 12 185.5 0.81000000238419 302.39868164062 7 1 delete
11:37:35 56.966071 39.456068 2 198.19999694824 1.9399999380112 357.48413085938 8 1 delete
11:37:30 56.965972 39.456081 2 194.10000610352 2.0099999904633 1.2359619140625 8 1 delete
11:37:25 56.965871 39.456090 2 192.19999694824 1.7999999523163 358.77502441406 8 1 delete
11:37:20 56.965778 39.456098 2.5 187.89999389648 1.7300000190735 4.3011474609375 8 1 delete
11:37:08 56.965612 39.456013 13 192.10000610352 2.0599999427795 4.54833984375 8 1 delete
11:27:03 56.959141 39.463584 2 195 1.0099999904633 2.3565673828125 8 1 delete
11:26:48 56.959016 39.463630 3 196.89999389648 0 0 8 1 delete
11:26:37 56.958901 39.463624 10 187.39999389648 0.9899999499321 358.48388671875 8 1 delete
11:16:34 56.955016 39.458320 1.5 178 1.1999999284744 59.8974609375 11 1 delete
11:16:24 56.954961 39.458174 1.5 176.60000610352 1.1699999570847 50.916137695312 11 1 delete